TimeCST,TemperatureF,Dew PointF,Humidity,Sea Level PressureIn,VisibilityMPH,Wind Direction,Wind SpeedMPH,Gust SpeedMPH,PrecipitationIn,Events,Conditions,WindDirDegrees,DateUTC
12:15 AM,12.2,10.4,92,30.41,1.2,Calm,Calm,-,N/A,,Partly Cloudy,0,2013-01-07 06:15:00
12:40 AM,12.2,10.4,92,30.41,0.2,Calm,Calm,-,N/A,Fog,Light Freezing Fog,0,2013-01-07 06:40:00
12:53 AM,14.0,12.0,92,30.44,0.2,Calm,Calm,-,N/A,Fog,Light Freezing Fog,0,2013-01-07 06:53:00
1:32 AM,14.0,10.4,86,30.42,2.0,Calm,Calm,-,N/A,,Mostly Cloudy,0,2013-01-07 07:32:00
1:43 AM,12.2,8.6,85,30.42,3.0,Calm,Calm,-,N/A,,Mostly Cloudy,0,2013-01-07 07:43:00
1:48 AM,10.4,6.8,85,30.42,0.8,Calm,Calm,-,N/A,,Mist,0,2013-01-07 07:48:00
1:53 AM,10.9,8.1,88,30.45,0.2,Calm,Calm,-,N/A,Fog,Light Freezing Fog,0,2013-01-07 07:53:00
2:53 AM,10.9,8.1,88,30.46,0.2,Calm,Calm,-,N/A,Fog,Light Freezing Fog,0,2013-01-07 08:53:00
3:53 AM,10.9,8.1,88,30.46,0.2,Calm,Calm,-,N/A,Fog,Light Freezing Fog,0,2013-01-07 09:53:00
4:53 AM,10.9,8.1,88,30.47,0.2,Calm,Calm,-,N/A,Fog,Light Freezing Fog,0,2013-01-07 10:53:00
5:53 AM,10.9,8.1,88,30.47,0.2,Calm,Calm,-,N/A,Fog,Light Freezing Fog,0,2013-01-07 11:53:00
6:50 AM,10.4,6.8,85,30.46,2.0,Calm,Calm,-,N/A,,Scattered Clouds,0,2013-01-07 12:50:00
6:53 AM,10.0,6.1,84,30.48,2.5,Calm,Calm,-,N/A,,Scattered Clouds,0,2013-01-07 12:53:00
7:11 AM,10.4,6.8,85,30.46,1.5,Calm,Calm,-,N/A,,Clear,0,2013-01-07 13:11:00
7:26 AM,10.4,6.8,85,30.46,2.0,Calm,Calm,-,N/A,,Clear,0,2013-01-07 13:26:00
7:53 AM,10.9,8.1,88,30.48,2.5,Calm,Calm,-,N/A,,Scattered Clouds,0,2013-01-07 13:53:00
8:10 AM,12.2,10.4,92,30.46,3.0,Calm,Calm,-,N/A,,Partly Cloudy,0,2013-01-07 14:10:00
8:53 AM,15.1,12.9,91,30.50,3.0,Calm,Calm,-,N/A,,Clear,0,2013-01-07 14:53:00
8:58 AM,15.8,14.0,93,30.47,1.8,Calm,Calm,-,N/A,,Clear,0,2013-01-07 14:58:00
9:22 AM,19.4,17.6,93,30.48,2.5,Calm,Calm,-,N/A,,Clear,0,2013-01-07 15:22:00
9:53 AM,21.0,19.0,92,30.51,2.5,South,3.5,-,N/A,,Clear,180,2013-01-07 15:53:00
10:53 AM,26.1,21.9,84,30.49,3.0,South,5.8,-,N/A,,Clear,170,2013-01-07 16:53:00
11:53 AM,28.9,24.1,82,30.43,4.0,South,9.2,-,N/A,,Haze,170,2013-01-07 17:53:00
12:53 PM,32.0,26.1,79,30.39,5.0,South,9.2,-,N/A,,Haze,180,2013-01-07 18:53:00
1:53 PM,34.0,26.1,73,30.35,6.0,South,9.2,-,N/A,,Haze,180,2013-01-07 19:53:00
2:53 PM,35.1,27.0,72,30.35,6.0,South,5.8,-,N/A,,Haze,180,2013-01-07 20:53:00
3:53 PM,33.1,26.1,75,30.32,6.0,South,3.5,-,N/A,,Haze,190,2013-01-07 21:53:00
4:53 PM,32.0,24.1,73,30.31,5.0,Calm,Calm,-,N/A,,Haze,0,2013-01-07 22:53:00
5:53 PM,23.0,19.0,85,30.31,5.0,SE,5.8,-,N/A,,Clear,140,2013-01-07 23:53:00
6:53 PM,21.0,17.1,85,30.30,4.0,Calm,Calm,-,N/A,,Clear,0,2013-01-08 00:53:00
7:39 PM,17.6,15.8,93,30.26,2.5,SSE,8.1,-,N/A,,Clear,150,2013-01-08 01:39:00
7:53 PM,18.0,15.1,88,30.28,3.0,SSE,6.9,-,N/A,,Clear,150,2013-01-08 01:53:00
8:03 PM,17.6,15.8,93,30.25,2.5,SSE,5.8,-,N/A,,Clear,160,2013-01-08 02:03:00
8:29 PM,19.4,15.8,86,30.26,3.0,West,3.5,-,N/A,,Clear,280,2013-01-08 02:29:00
8:51 PM,15.8,12.2,86,30.26,1.8,Calm,Calm,-,N/A,,Clear,0,2013-01-08 02:51:00
8:53 PM,16.0,12.9,88,30.29,1.8,Calm,Calm,-,N/A,,Clear,0,2013-01-08 02:53:00
9:04 PM,19.4,17.6,93,30.26,3.0,Calm,Calm,-,N/A,,Clear,0,2013-01-08 03:04:00
9:28 PM,21.2,19.4,93,30.25,2.5,Calm,Calm,-,N/A,,Clear,0,2013-01-08 03:28:00
9:53 PM,21.9,19.9,92,30.27,3.0,South,4.6,-,N/A,,Clear,170,2013-01-08 03:53:00
10:22 PM,21.2,17.6,86,30.24,2.5,SSE,5.8,-,N/A,,Clear,150,2013-01-08 04:22:00
10:53 PM,21.9,19.9,92,30.26,2.5,Calm,Calm,-,N/A,,Clear,0,2013-01-08 04:53:00
11:01 PM,17.6,15.8,93,30.24,0.8,Calm,Calm,-,N/A,,Clear,0,2013-01-08 05:01:00
11:12 PM,24.8,19.4,80,30.24,2.0,South,3.5,-,N/A,,Clear,170,2013-01-08 05:12:00
11:42 PM,24.8,21.2,86,30.24,3.0,South,3.5,-,N/A,,Clear,170,2013-01-08 05:42:00
11:53 PM,24.1,21.0,88,30.25,2.5,SSE,3.5,-,N/A,,Clear,160,2013-01-08 05:53:00